Time;durP1;ratioP1;P1;durP2;ratioP2;P2;SDS_P1;SDS_P2;PMS_P1;PMS_P2;Temp;Humidity;BMP_temperature;BMP_pressure;BME280_temperature;BME280_humidity;BME280_pressure;Samples;Min_cycle;Max_cycle;Signal;HPM_P1;HPM_P2
2023/10/10 00:02:20;;;;;;;12.50;6.45;;;16.20;99.90;;;;;;5065114;28;21006;-58
2023/10/10 00:04:54;;;;;;;11.88;5.78;;;16.20;99.90;;;;;;5058462;28;20056;-59
2023/10/10 00:07:20;;;;;;;12.23;6.25;;;16.20;99.90;;;;;;5062905;28;20032;-57
2023/10/10 00:09:46;;;;;;;17.27;6.30;;;16.20;99.90;;;;;;5060919;28;20110;-59
2023/10/10 00:12:13;;;;;;;;;;;16.20;99.90;;;;;;5067561;28;20395;-57
2023/10/10 00:14:39;;;;;;;7.68;5.68;;;16.20;99.90;;;;;;5061059;28;20376;-58
2023/10/10 00:17:08;;;;;;;;;;;16.20;99.90;;;;;;5061074;28;20344;-58
2023/10/10 00:19:43;;;;;;;6.53;5.72;;;16.20;99.90;;;;;;5059389;28;19970;-58
2023/10/10 00:36:53;;;;;;;8.85;7.18;;;16.20;99.90;;;;;;5060516;28;20059;-58
2023/10/10 00:48:47;;;;;;;16.60;5.90;;;16.20;99.90;;;;;;5063872;28;20107;-59
2023/10/10 00:51:20;;;;;;;8.57;5.32;;;16.20;99.90;;;;;;5063548;28;20390;-59
2023/10/10 00:54:03;;;;;;;12.07;5.85;;;16.20;99.90;;;;;;5061942;28;20041;-58
2023/10/10 00:56:29;;;;;;;10.13;5.55;;;16.20;99.90;;;;;;5046442;28;20098;-58
2023/10/10 00:58:55;;;;;;;10.57;5.85;;;16.20;99.90;;;;;;5063311;28;20087;-56
2023/10/10 01:16:09;;;;;;;10.25;4.80;;;16.10;99.90;;;;;;5059176;28;20431;-58
2023/10/10 01:18:56;;;;;;;9.00;3.88;;;16.10;99.90;;;;;;5047363;28;20033;-59
2023/10/10 01:21:33;;;;;;;10.15;4.47;;;16.10;99.90;;;;;;5043073;28;20033;-58
2023/10/10 01:24:12;;;;;;;13.02;4.47;;;16.10;99.90;;;;;;5046368;28;20381;-56
2023/10/10 01:26:44;;;;;;;10.65;4.65;;;16.10;99.90;;;;;;5046527;28;20170;-57
2023/10/10 01:46:34;;;;;;;11.20;4.93;;;16.10;99.90;;;;;;5049671;28;20503;-57
2023/10/10 01:49:06;;;;;;;10.25;5.53;;;16.10;99.90;;;;;;5052223;28;20041;-56
2023/10/10 01:51:35;;;;;;;9.73;5.25;;;16.10;99.90;;;;;;5047129;28;20043;-58
2023/10/10 01:54:14;;;;;;;12.95;5.35;;;16.10;99.90;;;;;;5055207;28;20060;-57
2023/10/10 01:56:42;;;;;;;11.63;6.82;;;16.10;99.90;;;;;;5048165;28;20412;-57
2023/10/10 01:59:13;;;;;;;9.38;5.63;;;16.10;99.90;;;;;;5051799;28;20159;-58
2023/10/10 02:01:41;;;;;;;10.40;5.47;;;16.10;99.90;;;;;;5051558;28;20119;-59
2023/10/10 02:04:07;;;;;;;13.35;6.22;;;16.10;99.90;;;;;;5052809;28;20029;-56
2023/10/10 02:06:35;;;;;;;7.22;5.28;;;16.10;99.90;;;;;;5052331;28;20041;-58
2023/10/10 02:12:04;;;;;;;9.55;5.15;;;16.10;99.90;;;;;;5042984;28;20128;-56
2023/10/10 02:14:30;;;;;;;8.85;5.25;;;16.00;99.90;;;;;;5051761;28;20058;-56
2023/10/10 02:16:59;;;;;;;10.32;6.53;;;16.00;99.90;;;;;;5050171;28;20056;-57
2023/10/10 02:19:39;;;;;;;11.50;5.93;;;16.10;99.90;;;;;;5050168;28;20424;-57
2023/10/10 02:22:22;;;;;;;7.22;5.55;;;16.00;99.90;;;;;;5051405;28;20115;-56
2023/10/10 02:24:49;;;;;;;14.00;6.53;;;16.00;99.90;;;;;;5051526;28;20404;-56
2023/10/10 02:27:20;;;;;;;8.32;6.00;;;16.00;99.90;;;;;;5049985;28;20115;-57
2023/10/10 02:29:49;;;;;;;12.05;5.93;;;16.00;99.90;;;;;;5052346;28;20432;-57
2023/10/10 02:32:21;;;;;;;7.47;6.15;;;16.00;99.90;;;;;;5052914;28;20091;-56
2023/10/10 02:35:26;;;;;;;9.63;5.50;;;16.00;99.90;;;;;;5042821;28;20439;-57
2023/10/10 02:37:44;;;;;;;7.72;5.25;;;15.90;99.90;;;;;;5050536;28;20044;-57
2023/10/10 02:40:16;;;;;;;8.70;5.18;;;16.00;99.90;;;;;;5051755;28;20517;-57
2023/10/10 02:43:18;;;;;;;11.73;5.70;;;15.90;99.90;;;;;;5052299;28;20040;-59
2023/10/10 02:45:37;;;;;;;8.20;5.13;;;15.90;99.90;;;;;;5050231;28;20511;-54
2023/10/10 02:48:07;;;;;;;10.00;5.43;;;15.90;99.90;;;;;;5050977;28;20040;-56
2023/10/10 02:50:40;;;;;;;10.48;5.53;;;15.90;99.90;;;;;;5049569;28;20423;-58
2023/10/10 02:53:09;;;;;;;9.60;5.95;;;15.90;99.90;;;;;;5050347;28;20051;-57
2023/10/10 02:55:40;;;;;;;11.23;5.00;;;15.90;99.90;;;;;;5050046;28;20048;-55
2023/10/10 02:58:21;;;;;;;6.10;4.28;;;15.90;99.90;;;;;;5051535;28;20029;-58
2023/10/10 03:00:57;;;;;;;8.55;5.40;;;15.90;99.90;;;;;;5049567;28;20041;-57
2023/10/10 03:03:24;;;;;;;6.22;5.05;;;15.80;99.90;;;;;;5052392;28;20036;-57
2023/10/10 03:05:50;;;;;;;7.97;5.30;;;15.80;99.90;;;;;;5052919;28;20511;-56
2023/10/10 03:08:34;;;;;;;;;;;15.80;99.90;;;;;;5051145;28;20072;-55
2023/10/10 03:11:00;;;;;;;10.48;4.80;;;15.80;99.90;;;;;;5052535;28;20280;-58
2023/10/10 03:13:31;;;;;;;8.38;4.38;;;15.80;99.90;;;;;;5052902;28;20044;-57
2023/10/10 03:24:15;;;;;;;10.38;4.72;;;15.60;99.90;;;;;;5050478;28;20036;-55
2023/10/10 03:29:21;;;;;;;10.05;5.60;;;15.60;99.90;;;;;;5054064;28;20053;-58
2023/10/10 03:32:18;;;;;;;9.73;5.50;;;15.60;99.90;;;;;;5050696;28;20095;-58
2023/10/10 03:34:44;;;;;;;8.60;6.13;;;15.60;99.90;;;;;;5050626;28;20142;-58
2023/10/10 03:39:58;;;;;;;10.20;6.60;;;15.50;99.90;;;;;;5062228;28;20125;-58
2023/10/10 05:24:14;;;;;;;23.85;17.52;;;15.50;99.90;;;;;;5059605;28;20045;-57
2023/10/10 05:26:49;;;;;;;23.67;17.88;;;15.50;99.90;;;;;;5063904;28;20047;-57
2023/10/10 05:29:19;;;;;;;27.38;19.67;;;15.50;99.90;;;;;;5055259;28;20040;-57
2023/10/10 05:31:51;;;;;;;24.98;17.92;;;15.50;99.90;;;;;;5052059;28;20114;-56
2023/10/10 05:34:18;;;;;;;24.75;18.08;;;15.50;99.90;;;;;;5057688;28;20059;-57
2023/10/10 05:36:46;;;;;;;30.80;21.17;;;15.50;99.90;;;;;;5055185;28;20041;-55
2023/10/10 05:39:17;;;;;;;30.90;20.23;;;15.50;99.90;;;;;;5064972;28;20062;-55
2023/10/10 05:41:54;;;;;;;25.67;17.85;;;15.50;99.90;;;;;;5059905;28;20045;-58
2023/10/10 05:44:20;;;;;;;27.65;20.17;;;15.50;99.90;;;;;;5054325;28;20071;-58
2023/10/10 05:46:47;;;;;;;30.02;20.52;;;15.40;99.90;;;;;;5055961;28;20119;-56
2023/10/10 05:49:13;;;;;;;34.47;21.67;;;15.40;99.90;;;;;;5066141;28;20052;-57
2023/10/10 05:51:40;;;;;;;32.42;20.98;;;15.40;99.90;;;;;;5062210;28;20028;-57
2023/10/10 05:54:10;;;;;;;33.50;21.38;;;15.30;99.90;;;;;;5058962;28;20044;-57
2023/10/10 05:56:37;;;;;;;32.10;22.10;;;15.30;99.90;;;;;;5051270;28;20535;-57
2023/10/10 05:59:03;;;;;;;24.38;19.50;;;15.30;99.90;;;;;;5062275;28;20033;-57
2023/10/10 06:01:30;;;;;;;28.30;21.38;;;15.20;99.90;;;;;;5062715;28;20032;-57
2023/10/10 06:03:56;;;;;;;36.40;21.13;;;15.20;99.90;;;;;;5059443;28;20053;-57
2023/10/10 06:06:22;;;;;;;31.33;21.90;;;15.20;99.90;;;;;;5064477;28;20035;-57
2023/10/10 06:08:53;;;;;;;30.30;20.95;;;15.20;99.90;;;;;;5058142;28;20491;-57
2023/10/10 06:11:19;;;;;;;30.92;21.27;;;15.20;99.90;;;;;;5050298;28;20064;-62
2023/10/10 06:13:46;;;;;;;29.05;22.20;;;15.10;99.90;;;;;;5058646;28;20709;-57
2023/10/10 06:16:14;;;;;;;33.05;21.48;;;15.10;99.90;;;;;;5042500;28;20036;-57
2023/10/10 06:18:49;;;;;;;29.05;21.00;;;15.20;99.90;;;;;;5054276;28;20210;-59
2023/10/10 06:21:16;;;;;;;33.20;21.65;;;15.20;99.90;;;;;;5066378;28;20043;-57
2023/10/10 06:23:42;;;;;;;36.38;23.13;;;15.20;99.90;;;;;;5051887;28;20056;-57
2023/10/10 06:26:08;;;;;;;28.52;20.10;;;15.20;99.90;;;;;;5058248;28;20036;-57
2023/10/10 06:28:45;;;;;;;31.30;20.73;;;15.20;99.90;;;;;;5058492;28;20422;-57
2023/10/10 06:31:20;;;;;;;28.08;20.67;;;15.20;99.90;;;;;;5060754;28;20419;-57
2023/10/10 06:33:51;;;;;;;32.35;22.38;;;15.30;99.90;;;;;;5070483;28;20037;-57
2023/10/10 06:38:59;;;;;;;33.47;23.55;;;15.30;99.90;;;;;;5062905;28;20061;-57
2023/10/10 06:41:27;;;;;;;33.35;22.88;;;15.30;99.90;;;;;;5059039;28;20046;-57
2023/10/10 06:43:53;;;;;;;32.33;22.00;;;15.40;99.90;;;;;;5061369;28;20036;-57
2023/10/10 06:46:18;;;;;;;30.40;22.58;;;15.40;99.90;;;;;;5058490;28;20499;-57
2023/10/10 06:48:47;;;;;;;34.67;21.95;;;15.40;99.90;;;;;;5065333;28;20135;-57
2023/10/10 06:51:19;;;;;;;36.70;24.63;;;15.40;99.90;;;;;;5059891;28;20048;-60
2023/10/10 06:53:45;;;;;;;33.15;22.73;;;15.40;99.90;;;;;;5067867;28;20549;-58
2023/10/10 06:56:17;;;;;;;29.67;22.05;;;15.50;99.90;;;;;;5068117;28;20041;-58
2023/10/10 06:58:47;;;;;;;31.65;22.00;;;15.50;99.90;;;;;;5069635;28;20043;-57
2023/10/10 07:01:18;;;;;;;31.80;23.90;;;15.50;99.90;;;;;;5066669;28;20037;-56
2023/10/10 07:03:54;;;;;;;34.42;23.40;;;15.60;99.90;;;;;;5058312;28;20044;-58
2023/10/10 07:06:21;;;;;;;38.28;24.65;;;15.60;99.90;;;;;;5062849;28;20036;-59
2023/10/10 07:09:03;;;;;;;45.25;29.95;;;15.70;99.90;;;;;;5068492;28;20059;-57
2023/10/10 07:11:29;;;;;;;45.70;29.27;;;15.70;99.90;;;;;;5068244;28;20040;-57
2023/10/10 07:13:58;;;;;;;44.47;32.80;;;15.70;99.90;;;;;;5066651;28;20056;-58
2023/10/10 07:16:24;;;;;;;52.03;35.47;;;15.80;99.90;;;;;;5065361;28;20037;-58
2023/10/10 07:18:56;;;;;;;53.92;37.97;;;15.80;99.90;;;;;;5063812;28;20140;-57
2023/10/10 07:21:36;;;;;;;65.53;43.05;;;15.90;99.90;;;;;;5068725;28;20403;-57
2023/10/10 07:24:12;;;;;;;55.85;41.10;;;15.90;99.90;;;;;;5068041;28;20072;-57
2023/10/10 07:26:42;;;;;;;59.10;40.75;;;16.00;99.90;;;;;;5062505;28;20039;-57
2023/10/10 07:32:07;;;;;;;66.22;43.17;;;16.00;99.90;;;;;;5063172;28;20041;-58
2023/10/10 07:34:35;;;;;;;;;;;16.10;99.90;;;;;;5068010;28;20082;-55
2023/10/10 07:37:08;;;;;;;69.50;48.10;;;16.10;99.90;;;;;;5068505;28;19983;-58
2023/10/10 07:39:54;;;;;;;73.95;47.10;;;16.10;99.90;;;;;;5068927;28;20036;-58
2023/10/10 07:42:27;;;;;;;76.40;48.92;;;16.10;99.90;;;;;;5052931;28;20449;-58
2023/10/10 07:44:56;;;;;;;75.45;50.22;;;16.10;99.90;;;;;;5054253;28;20032;-58
2023/10/10 07:47:26;;;;;;;76.07;49.17;;;16.10;99.90;;;;;;5061079;28;20037;-57
2023/10/10 07:49:59;;;;;;;72.28;48.28;;;16.20;99.90;;;;;;5062269;28;20040;-57
2023/10/10 07:52:25;;;;;;;78.30;50.47;;;16.20;99.90;;;;;;5055269;28;20045;-58
2023/10/10 07:55:02;;;;;;;79.57;50.03;;;16.20;99.90;;;;;;5058183;28;20051;-59
2023/10/10 07:57:29;;;;;;;79.32;49.17;;;16.20;99.90;;;;;;5053090;28;20082;-57
2023/10/10 07:59:58;;;;;;;79.15;50.50;;;16.20;99.90;;;;;;5058403;28;20399;-57
2023/10/10 08:02:25;;;;;;;81.88;51.35;;;16.20;99.90;;;;;;5055765;28;20749;-58
2023/10/10 08:04:55;;;;;;;86.38;52.30;;;16.20;99.90;;;;;;5054585;28;20068;-58
2023/10/10 08:07:23;;;;;;;82.53;52.53;;;16.20;99.90;;;;;;5047254;28;20495;-58
2023/10/10 08:09:49;;;;;;;77.95;53.08;;;16.20;99.90;;;;;;5044740;28;21682;-58
2023/10/10 08:12:15;;;;;;;87.20;55.83;;;16.20;99.90;;;;;;5059599;28;20190;-57
2023/10/10 08:14:44;;;;;;;90.45;56.90;;;16.20;99.90;;;;;;5057572;28;20033;-57
2023/10/10 08:17:19;;;;;;;86.38;55.95;;;16.20;99.90;;;;;;5042675;28;20112;-58
2023/10/10 08:19:51;;;;;;;91.30;56.53;;;16.20;99.90;;;;;;5060686;28;20041;-57
2023/10/10 08:22:19;;;;;;;88.70;56.38;;;16.20;99.90;;;;;;5059408;28;20479;-56
2023/10/10 08:24:45;;;;;;;80.95;51.40;;;16.10;99.90;;;;;;5061535;28;20044;-57
2023/10/10 08:27:11;;;;;;;88.90;53.45;;;16.10;99.90;;;;;;5050863;28;20037;-58
2023/10/10 08:29:38;;;;;;;81.88;52.28;;;16.10;99.90;;;;;;5056068;28;20083;-56
2023/10/10 08:32:05;;;;;;;86.40;52.28;;;16.10;99.90;;;;;;5060459;28;20503;-58
2023/10/10 08:34:31;;;;;;;86.30;51.30;;;16.20;99.90;;;;;;5044889;28;20037;-57
2023/10/10 08:37:03;;;;;;;83.80;53.42;;;16.20;99.90;;;;;;5045407;28;20064;-58
2023/10/10 08:39:35;;;;;;;83.90;53.10;;;16.20;99.90;;;;;;5041263;28;20167;-58
2023/10/10 08:42:05;;;;;;;80.82;50.67;;;16.30;99.90;;;;;;5052237;28;20037;-57
2023/10/10 08:44:36;;;;;;;79.18;49.78;;;16.30;99.90;;;;;;5057706;28;20048;-58
2023/10/10 08:47:05;;;;;;;77.57;48.53;;;16.30;99.90;;;;;;5048401;28;20442;-58
2023/10/10 08:49:31;;;;;;;69.30;47.42;;;16.30;99.90;;;;;;5049510;28;20040;-57
2023/10/10 08:52:02;;;;;;;83.78;51.25;;;16.30;99.90;;;;;;5050705;28;20036;-57
2023/10/10 08:54:28;;;;;;;80.38;55.38;;;16.30;99.90;;;;;;5046875;28;20123;-57
2023/10/10 08:57:00;;;;;;;;;;;16.30;99.90;;;;;;5051951;28;20072;-58
2023/10/10 08:59:28;;;;;;;79.45;52.60;;;16.40;99.90;;;;;;5053873;28;19932;-58
2023/10/10 09:02:07;;;;;;;76.97;51.28;;;16.40;99.90;;;;;;5051944;28;20049;-58
2023/10/10 09:04:33;;;;;;;75.05;51.45;;;16.50;99.90;;;;;;5054082;28;20041;-54
2023/10/10 09:07:00;;;;;;;;;;;16.60;99.90;;;;;;5054213;28;20029;-55
2023/10/10 09:09:35;;;;;;;69.38;46.60;;;16.70;99.90;;;;;;5046128;28;19925;-54
2023/10/10 09:12:12;;;;;;;70.88;50.40;;;16.80;99.90;;;;;;5049791;28;20064;-55
2023/10/10 09:14:41;;;;;;;62.65;46.03;;;17.00;99.90;;;;;;5051227;28;20037;-55
2023/10/10 09:17:28;;;;;;;67.72;48.60;;;17.20;99.90;;;;;;5050137;28;20040;-58
2023/10/10 09:19:54;;;;;;;63.73;47.10;;;17.30;99.90;;;;;;5054143;28;20127;-61
2023/10/10 09:22:34;;;;;;;65.65;44.33;;;17.40;99.90;;;;;;5054008;28;20282;-59
2023/10/10 09:25:17;;;;;;;66.95;48.50;;;17.40;99.90;;;;;;5045987;28;20069;-59
2023/10/10 09:27:59;;;;;;;59.85;42.80;;;17.40;99.90;;;;;;5037712;28;20212;-59
2023/10/10 09:30:33;;;;;;;58.28;45.25;;;17.50;99.90;;;;;;5051713;28;20052;-59
2023/10/10 09:35:53;;;;;;;65.97;43.70;;;17.70;99.90;;;;;;5055768;28;20053;-59
2023/10/10 09:38:21;;;;;;;52.72;40.25;;;17.70;99.90;;;;;;5049146;28;20439;-59
2023/10/10 09:41:10;;;;;;;54.47;40.97;;;17.80;99.90;;;;;;5052864;28;20033;-59
2023/10/10 10:03:31;;;;;;;55.38;39.15;;;18.60;99.90;;;;;;5050470;28;20110;-59
2023/10/10 10:06:34;;;;;;;54.30;39.03;;;18.70;99.90;;;;;;5051605;28;20045;-59
2023/10/10 10:09:21;;;;;;;52.72;38.03;;;18.80;99.90;;;;;;5053878;28;20048;-59
2023/10/10 10:12:10;;;;;;;58.50;41.03;;;18.90;99.90;;;;;;5055354;28;20415;-59
2023/10/10 10:15:03;;;;;;;52.38;39.60;;;18.90;99.90;;;;;;5060271;28;20369;-59
2023/10/10 10:17:47;;;;;;;55.60;37.95;;;18.90;99.90;;;;;;5054943;28;20235;-59
2023/10/10 10:20:22;;;;;;;50.80;37.80;;;19.00;99.90;;;;;;5058641;28;20123;-59
2023/10/10 10:22:59;;;;;;;56.10;37.60;;;19.10;99.90;;;;;;5057977;28;20119;-59
2023/10/10 10:25:36;;;;;;;49.28;35.53;;;19.20;99.90;;;;;;5057044;28;20438;-59
2023/10/10 10:28:12;;;;;;;55.05;38.50;;;19.20;99.90;;;;;;5061711;28;20435;-59
2023/10/10 10:30:47;;;;;;;50.00;34.67;;;19.30;99.90;;;;;;5058886;28;20045;-59
2023/10/10 10:33:13;;;;;;;46.80;34.78;;;19.30;99.90;;;;;;5061176;28;20334;-59
2023/10/10 10:35:56;;;;;;;48.20;35.97;;;19.30;99.90;;;;;;5060678;28;20480;-59
2023/10/10 10:38:23;;;;;;;40.50;32.97;;;19.40;99.90;;;;;;5058927;28;20260;-59
2023/10/10 10:40:50;;;;;;;46.78;35.22;;;19.50;99.90;;;;;;5060084;28;20521;-59
2023/10/10 10:43:31;;;;;;;45.85;34.47;;;19.40;99.90;;;;;;5060254;28;20090;-59
2023/10/10 10:46:15;;;;;;;50.55;36.58;;;19.50;99.90;;;;;;5058251;28;20045;-59
2023/10/10 10:48:47;;;;;;;44.97;33.47;;;19.50;99.90;;;;;;5056077;28;20040;-59
2023/10/10 10:51:27;;;;;;;49.78;34.08;;;19.60;99.90;;;;;;5051060;28;20515;-59
2023/10/10 10:53:58;;;;;;;46.25;35.20;;;19.60;99.90;;;;;;5053210;28;20120;-59
2023/10/10 10:59:13;;;;;;;42.35;31.85;;;19.80;99.90;;;;;;5055560;28;20051;-59
2023/10/10 11:01:45;;;;;;;45.22;33.75;;;19.90;99.90;;;;;;5054819;28;20037;-59
2023/10/10 11:04:24;;;;;;;43.72;30.83;;;19.90;99.90;;;;;;5046558;28;20044;-58
2023/10/10 11:06:52;;;;;;;47.53;35.70;;;20.00;99.90;;;;;;5048118;28;20358;-59
2023/10/10 11:09:28;;;;;;;43.65;34.15;;;20.20;99.90;;;;;;5055602;28;20176;-59
2023/10/10 11:12:02;;;;;;;47.10;33.28;;;20.20;99.90;;;;;;5052538;28;20052;-59
2023/10/10 11:14:29;;;;;;;51.28;31.70;;;20.20;99.90;;;;;;5053762;28;20044;-59
2023/10/10 11:16:58;;;;;;;47.45;32.10;;;20.30;99.90;;;;;;5051148;28;20531;-58
2023/10/10 11:22:00;;;;;;;;;;;20.60;99.90;;;;;;5055613;28;20037;-58
2023/10/10 11:24:31;;;;;;;41.03;29.25;;;20.70;99.90;;;;;;5059769;28;20121;-59
2023/10/10 11:29:47;;;;;;;44.13;32.30;;;21.00;99.90;;;;;;5048523;28;20512;-57
2023/10/10 11:32:46;;;;;;;42.55;30.02;;;21.10;99.90;;;;;;5049189;28;20075;-59
2023/10/10 11:37:45;;;;;;;41.67;28.98;;;21.30;99.90;;;;;;5052082;28;20047;-58
2023/10/10 11:42:56;;;;;;;39.13;27.75;;;21.40;99.90;;;;;;5053868;28;20473;-58
2023/10/10 11:45:27;;;;;;;35.70;25.85;;;21.50;99.90;;;;;;5053022;28;20166;-58
2023/10/10 11:48:05;;;;;;;35.33;25.13;;;21.70;99.90;;;;;;5044248;28;20102;-58
2023/10/10 11:50:44;;;;;;;38.75;26.25;;;21.80;99.90;;;;;;5053762;28;20037;-59
2023/10/10 11:53:24;;;;;;;34.72;25.70;;;21.90;99.90;;;;;;5054763;28;20037;-58
2023/10/10 11:55:53;;;;;;;36.33;25.02;;;22.10;99.90;;;;;;5054966;28;20516;-60
2023/10/10 11:58:19;;;;;;;33.33;25.20;;;22.30;99.90;;;;;;5055039;28;20116;-59
2023/10/10 12:00:45;;;;;;;;;;;22.40;99.90;;;;;;5054887;28;20550;-58
2023/10/10 12:03:19;;;;;;;38.15;22.40;;;22.40;99.90;;;;;;5059231;28;19923;-59
2023/10/10 12:05:52;;;;;;;29.80;21.05;;;22.60;99.90;;;;;;5058176;28;20043;-59
2023/10/10 12:08:24;;;;;;;;;;;22.50;99.90;;;;;;5055647;28;20395;-60
2023/10/10 12:11:02;;;;;;;27.45;20.10;;;22.50;99.90;;;;;;5060022;28;19920;-58
2023/10/10 12:16:12;;;;;;;29.30;19.65;;;22.50;99.90;;;;;;5057011;28;20049;-59
2023/10/10 12:19:12;;;;;;;29.42;21.02;;;22.70;99.90;;;;;;5057702;28;20148;-60
2023/10/10 12:21:31;;;;;;;29.02;19.98;;;22.80;99.90;;;;;;5055372;28;20860;-58
2023/10/10 12:23:57;;;;;;;26.63;20.20;;;22.90;99.90;;;;;;5055698;28;20032;-58
2023/10/10 12:26:23;;;;;;;;;;;23.00;99.90;;;;;;5058334;28;20403;-58
2023/10/10 12:28:52;;;;;;;27.73;19.40;;;23.10;99.90;;;;;;5058355;28;20369;-57
2023/10/10 12:31:21;;;;;;;28.38;18.75;;;23.00;99.90;;;;;;5054348;28;20245;-59
2023/10/10 12:33:49;;;;;;;22.27;17.98;;;22.90;99.90;;;;;;5046989;28;20101;-58
2023/10/10 12:36:22;;;;;;;25.70;17.00;;;22.80;99.90;;;;;;5053203;28;20041;-58
2023/10/10 12:38:48;;;;;;;32.35;18.60;;;22.70;99.90;;;;;;5055606;28;20040;-58
2023/10/10 12:41:20;;;;;;;23.90;15.80;;;22.70;99.90;;;;;;5055827;28;20033;-58
2023/10/10 12:43:46;;;;;;;27.50;16.02;;;22.80;99.90;;;;;;5057177;28;20186;-59
2023/10/10 12:46:16;;;;;;;28.13;15.18;;;22.80;99.90;;;;;;5054637;28;20496;-58
2023/10/10 12:48:46;;;;;;;25.17;15.95;;;22.90;99.90;;;;;;5056190;28;20413;-58
2023/10/10 12:51:12;;;;;;;25.50;15.48;;;22.90;99.90;;;;;;5039616;28;20053;-58
2023/10/10 12:53:39;;;;;;;24.15;15.80;;;23.00;99.90;;;;;;5059740;28;20068;-58
2023/10/10 12:56:12;;;;;;;22.95;15.77;;;23.00;99.90;;;;;;5055002;28;20041;-58
2023/10/10 12:59:03;;;;;;;25.42;16.38;;;23.00;99.90;;;;;;5054563;28;20399;-57
2023/10/10 13:01:25;;;;;;;23.48;15.93;;;23.00;99.90;;;;;;5048877;28;20067;-57
2023/10/10 13:03:51;;;;;;;28.23;16.77;;;22.90;99.90;;;;;;5052524;28;20045;-58
2023/10/10 13:06:17;;;;;;;23.35;15.13;;;22.70;99.90;;;;;;5056851;28;20154;-58
2023/10/10 13:08:54;;;;;;;;;;;22.60;99.90;;;;;;5052133;28;20037;-58
2023/10/10 13:11:32;;;;;;;20.27;15.52;;;22.50;99.90;;;;;;5052922;28;19917;-57
2023/10/10 13:14:08;;;;;;;24.40;15.75;;;22.40;99.90;;;;;;5055139;28;20036;-58
2023/10/10 13:19:06;;;;;;;22.63;14.65;;;22.30;99.90;;;;;;5054549;28;20351;-58
2023/10/10 13:21:39;;;;;;;28.40;14.85;;;22.20;99.90;;;;;;5053241;28;20076;-58
2023/10/10 13:24:09;;;;;;;20.02;14.57;;;22.10;99.90;;;;;;5048813;28;20033;-58
2023/10/10 13:26:45;;;;;;;26.48;14.20;;;21.90;99.90;;;;;;5052965;28;20508;-56
2023/10/10 13:29:11;;;;;;;19.85;13.80;;;21.80;99.90;;;;;;5052432;28;20040;-57
2023/10/10 13:31:37;;;;;;;;;;;21.70;99.90;;;;;;5053970;28;20041;-58
2023/10/10 13:34:04;;;;;;;21.15;13.98;;;21.60;99.90;;;;;;5056941;28;19923;-57
2023/10/10 13:36:32;;;;;;;19.20;15.23;;;21.50;99.90;;;;;;5056041;28;20072;-58
2023/10/10 13:39:06;;;;;;;21.15;14.07;;;21.40;99.90;;;;;;5058757;28;20132;-56
2023/10/10 13:41:35;;;;;;;23.33;15.35;;;21.30;99.90;;;;;;5058303;28;20041;-58
2023/10/10 13:44:02;;;;;;;21.75;14.68;;;21.20;99.90;;;;;;5061681;28;20047;-59
2023/10/10 13:46:35;;;;;;;24.98;15.02;;;21.20;99.90;;;;;;5059375;28;20142;-57
2023/10/10 13:49:03;;;;;;;23.88;13.57;;;21.20;99.90;;;;;;5060270;28;20052;-56
2023/10/10 13:51:29;;;;;;;25.25;13.82;;;21.10;99.90;;;;;;5058309;28;20063;-56
2023/10/10 13:53:57;;;;;;;26.00;15.35;;;21.10;99.90;;;;;;5060983;28;20074;-56
2023/10/10 13:56:23;;;;;;;17.73;13.20;;;21.20;99.90;;;;;;5061519;28;20085;-57
2023/10/10 13:58:51;;;;;;;;;;;21.10;99.90;;;;;;5063501;28;20060;-58
2023/10/10 14:01:25;;;;;;;20.67;13.85;;;21.10;99.90;;;;;;5063578;28;20177;-57
2023/10/10 14:03:57;;;;;;;20.25;13.48;;;21.10;99.90;;;;;;5062255;28;20045;-58
2023/10/10 14:06:26;;;;;;;18.15;14.10;;;21.10;99.90;;;;;;5056637;28;20069;-56
2023/10/10 14:08:53;;;;;;;24.35;14.95;;;21.10;99.90;;;;;;5059683;28;20124;-56
2023/10/10 14:11:22;;;;;;;19.30;12.90;;;21.00;99.90;;;;;;5054748;28;20029;-57
2023/10/10 14:13:56;;;;;;;28.42;14.10;;;21.00;99.90;;;;;;5056845;28;20032;-57
2023/10/10 14:16:23;;;;;;;31.17;13.45;;;21.00;99.90;;;;;;5050544;28;20048;-57
2023/10/10 14:18:50;;;;;;;20.95;13.52;;;20.90;99.90;;;;;;5056860;28;20049;-56
2023/10/10 14:21:25;;;;;;;18.55;13.50;;;20.90;99.90;;;;;;5053757;28;20053;-55
2023/10/10 14:23:59;;;;;;;22.13;14.07;;;20.90;99.90;;;;;;5057971;28;20040;-59
2023/10/10 14:26:30;;;;;;;20.42;12.02;;;20.90;99.90;;;;;;5054626;28;20037;-59
2023/10/10 14:28:57;;;;;;;19.98;13.07;;;20.80;99.90;;;;;;5056337;28;20102;-57
2023/10/10 14:31:27;;;;;;;15.00;11.48;;;20.70;99.90;;;;;;5052329;28;20137;-56
2023/10/10 14:33:54;;;;;;;21.08;12.80;;;20.70;99.90;;;;;;5048832;28;20048;-59
2023/10/10 14:36:21;;;;;;;21.45;13.13;;;20.60;99.90;;;;;;5056286;28;20503;-58
2023/10/10 14:38:50;;;;;;;20.35;12.35;;;20.60;99.90;;;;;;5056189;28;20407;-58
2023/10/10 14:41:19;;;;;;;15.50;11.55;;;20.50;99.90;;;;;;5054040;28;20519;-57
2023/10/10 14:43:54;;;;;;;20.40;11.88;;;20.50;99.90;;;;;;5052973;28;20119;-59
2023/10/10 14:46:24;;;;;;;17.40;11.88;;;20.50;99.90;;;;;;5057032;28;20115;-58
2023/10/10 14:48:51;;;;;;;20.55;13.07;;;20.50;99.90;;;;;;5056617;28;20048;-58
2023/10/10 14:51:17;;;;;;;18.08;13.10;;;20.40;99.90;;;;;;5058153;28;20392;-57
2023/10/10 14:53:51;;;;;;;20.50;12.18;;;20.50;99.90;;;;;;5062050;28;20060;-57
2023/10/10 14:56:24;;;;;;;20.08;12.50;;;20.50;99.90;;;;;;5027660;28;20049;-59
2023/10/10 14:58:50;;;;;;;14.45;12.68;;;20.40;99.90;;;;;;5024051;28;20172;-59
2023/10/10 15:01:20;;;;;;;;;;;20.50;99.90;;;;;;5022441;28;20706;-58
2023/10/10 15:03:47;;;;;;;18.55;12.80;;;20.50;99.90;;;;;;5023620;28;19932;-57
2023/10/10 15:06:15;;;;;;;18.55;12.85;;;20.40;99.90;;;;;;5024802;28;20161;-59
2023/10/10 15:08:43;;;;;;;20.33;12.35;;;20.40;99.90;;;;;;5022472;28;20108;-57
2023/10/10 15:11:11;;;;;;;24.70;12.85;;;20.40;99.90;;;;;;5025603;28;20033;-58
2023/10/10 15:13:41;;;;;;;21.95;13.80;;;20.40;99.90;;;;;;5027303;28;20463;-57
2023/10/10 15:16:10;;;;;;;20.88;13.02;;;20.30;99.90;;;;;;5024729;28;20033;-56
2023/10/10 15:18:37;;;;;;;21.38;13.18;;;20.30;99.90;;;;;;5026439;28;20525;-58
2023/10/10 15:21:02;;;;;;;23.95;14.77;;;20.20;99.90;;;;;;5030523;28;20124;-58
2023/10/10 15:23:28;;;;;;;20.45;13.70;;;20.20;99.90;;;;;;5032269;28;20069;-58
2023/10/10 15:25:54;;;;;;;;;;;20.10;99.90;;;;;;5026484;28;20096;-57
2023/10/10 15:28:21;;;;;;;20.08;13.57;;;20.20;99.90;;;;;;5023230;28;20339;-58
2023/10/10 15:30:47;;;;;;;22.50;13.68;;;20.10;99.90;;;;;;5025353;28;20077;-58
2023/10/10 15:33:17;;;;;;;18.52;13.25;;;20.10;99.90;;;;;;5022132;28;20052;-58
2023/10/10 15:35:49;;;;;;;22.33;13.75;;;20.10;99.90;;;;;;5025773;28;20573;-58
2023/10/10 15:38:18;;;;;;;20.90;13.52;;;20.00;99.90;;;;;;5022424;28;20057;-57
2023/10/10 15:40:45;;;;;;;19.00;14.18;;;20.00;99.90;;;;;;5020635;28;20502;-58
2023/10/10 15:43:11;;;;;;;19.95;13.52;;;20.00;99.90;;;;;;5017672;28;20112;-60
2023/10/10 15:45:44;;;;;;;23.02;14.07;;;20.00;99.90;;;;;;5024938;28;21494;-61
2023/10/10 15:48:23;;;;;;;22.52;13.82;;;20.00;99.90;;;;;;5054164;28;20041;-59
2023/10/10 15:50:57;;;;;;;20.55;14.45;;;20.00;99.90;;;;;;5051596;28;20080;-60
2023/10/10 15:53:25;;;;;;;20.15;13.23;;;19.90;99.90;;;;;;5052763;28;20072;-60
2023/10/10 15:56:10;;;;;;;23.02;13.80;;;19.90;99.90;;;;;;5050931;28;20044;-60
2023/10/10 15:58:39;;;;;;;20.30;13.05;;;19.90;99.90;;;;;;5052386;28;20132;-60
2023/10/10 16:01:14;;;;;;;18.73;13.40;;;19.80;99.90;;;;;;5055877;28;20044;-59
2023/10/10 16:03:47;;;;;;;18.83;12.55;;;19.80;99.90;;;;;;5055728;28;20043;-59
2023/10/10 16:06:18;;;;;;;20.25;13.23;;;19.80;99.90;;;;;;5055446;28;20440;-59
2023/10/10 16:08:49;;;;;;;23.02;13.45;;;19.70;99.90;;;;;;5056042;28;20083;-58
2023/10/10 16:11:21;;;;;;;18.23;12.60;;;19.70;99.90;;;;;;5053920;28;20499;-58
2023/10/10 16:13:48;;;;;;;21.30;13.57;;;19.70;99.90;;;;;;5059705;28;20075;-59
2023/10/10 16:16:17;;;;;;;27.05;13.82;;;19.70;99.90;;;;;;5054064;28;20539;-59
2023/10/10 16:18:45;;;;;;;23.92;13.48;;;19.60;99.90;;;;;;5058924;28;20118;-58
2023/10/10 16:21:15;;;;;;;25.42;13.63;;;19.60;99.90;;;;;;5055545;28;20036;-59
2023/10/10 16:23:44;;;;;;;23.27;13.23;;;19.60;99.90;;;;;;5049958;28;20041;-59
2023/10/10 16:26:17;;;;;;;26.38;15.02;;;19.50;99.90;;;;;;5051673;28;20044;-57
2023/10/10 16:28:44;;;;;;;19.20;13.80;;;19.50;99.90;;;;;;5051904;28;20039;-61
2023/10/10 16:31:16;;;;;;;19.67;14.40;;;19.50;99.90;;;;;;5054965;28;20406;-58
2023/10/10 16:33:42;;;;;;;19.65;13.40;;;19.40;99.90;;;;;;5054270;28;20032;-59
2023/10/10 16:36:15;;;;;;;27.90;14.15;;;19.40;99.90;;;;;;5054742;28;20578;-59